createdAt,value
2023-01-28T00:00:26.618Z,20.62
2023-01-28T00:02:59.085Z,20.60
2023-01-28T00:05:31.594Z,20.40
2023-01-28T00:08:04.293Z,19.90
2023-01-28T00:10:40.194Z,18.67
2023-01-28T00:13:15.018Z,19.35
2023-01-28T00:15:47.585Z,20.10
2023-01-28T00:18:21.081Z,19.70
2023-01-28T00:21:04.375Z,19.40
2023-01-28T00:23:38.767Z,21.37
2023-01-28T00:26:16.178Z,20.32
2023-01-28T00:28:48.950Z,20.05
2023-01-28T00:31:23.913Z,20.32
2023-01-28T00:33:57.459Z,22.13
2023-01-28T00:36:29.981Z,21.00
2023-01-28T00:39:02.407Z,21.25
2023-01-28T00:41:34.868Z,19.75
2023-01-28T00:44:10.249Z,18.73
2023-01-28T00:46:42.741Z,20.97
2023-01-28T00:49:15.179Z,22.30
2023-01-28T00:51:49.071Z,20.60
2023-01-28T00:54:22.075Z,20.62
2023-01-28T00:56:54.525Z,19.60
2023-01-28T00:59:28.295Z,21.65
2023-01-28T01:02:02.450Z,19.73
2023-01-28T01:07:08.173Z,20.52
2023-01-28T01:09:41.217Z,19.65
2023-01-28T01:12:13.790Z,22.05
2023-01-28T01:14:47.393Z,19.25
2023-01-28T01:17:22.509Z,20.02
2023-01-28T01:19:55.241Z,20.92
2023-01-28T01:22:28.164Z,20.55
2023-01-28T01:25:00.488Z,20.50
2023-01-28T01:27:33.802Z,20.65
2023-01-28T01:30:08.718Z,20.68
2023-01-28T01:32:41.782Z,19.27
2023-01-28T01:35:14.878Z,20.23
2023-01-28T01:37:48.100Z,19.17
2023-01-28T01:40:20.549Z,19.20
2023-01-28T01:42:52.994Z,19.42
2023-01-28T01:45:25.303Z,18.27
2023-01-28T01:48:14.027Z,21.55
2023-01-28T01:50:59.005Z,20.25
2023-01-28T01:53:31.561Z,21.80
2023-01-28T01:56:06.198Z,19.98
2023-01-28T01:58:40.651Z,19.73
2023-01-28T02:01:13.259Z,20.08
2023-01-28T02:04:08.237Z,21.05
2023-01-28T02:06:40.719Z,20.00
2023-01-28T02:09:35.533Z,20.82
2023-01-28T02:12:15.227Z,20.72
2023-01-28T02:14:54.532Z,20.43
2023-01-28T02:17:27.191Z,20.57
2023-01-28T02:20:09.650Z,21.05
2023-01-28T02:22:53.109Z,19.77
2023-01-28T02:26:20.470Z,19.20
2023-01-28T02:29:23.974Z,19.27
2023-01-28T02:32:07.256Z,20.23
2023-01-28T02:34:51.520Z,20.62
2023-01-28T02:37:31.230Z,20.57
2023-01-28T02:40:13.603Z,20.02
2023-01-28T02:42:46.189Z,20.20
2023-01-28T02:45:50.057Z,19.57
2023-01-28T02:48:24.005Z,20.02
2023-01-28T02:51:01.213Z,19.80
2023-01-28T02:53:43.734Z,19.25
2023-01-28T02:56:38.805Z,21.15
2023-01-28T02:59:37.493Z,18.20
2023-01-28T03:02:34.072Z,20.50
2023-01-28T03:05:21.079Z,20.72
2023-01-28T03:07:53.687Z,18.67
2023-01-28T03:10:27.501Z,19.75
2023-01-28T03:13:18.036Z,19.90
2023-01-28T03:16:08.834Z,21.12
2023-01-28T03:19:09.132Z,20.00
2023-01-28T03:22:02.227Z,19.73
2023-01-28T03:28:11.599Z,20.02
2023-01-28T03:31:13.355Z,19.87
2023-01-28T03:34:05.613Z,19.10
2023-01-28T03:36:53.947Z,19.15
2023-01-28T03:39:31.624Z,19.15
2023-01-28T03:42:12.071Z,19.48
2023-01-28T03:45:03.384Z,22.15
2023-01-28T03:47:35.918Z,19.37
2023-01-28T03:50:11.322Z,20.40
2023-01-28T03:52:45.444Z,19.00
2023-01-28T03:55:31.775Z,18.67
2023-01-28T03:58:05.912Z,19.98
2023-01-28T04:00:41.147Z,20.92
2023-01-28T04:03:17.533Z,20.88
2023-01-28T04:06:03.676Z,20.27
2023-01-28T04:08:54.777Z,19.42
2023-01-28T04:11:31.862Z,18.82
2023-01-28T04:14:06.489Z,19.62
2023-01-28T04:16:43.794Z,20.23
2023-01-28T04:19:17.161Z,20.55
2023-01-28T04:21:50.118Z,19.73
2023-01-28T04:24:23.932Z,18.52
2023-01-28T04:26:56.682Z,20.02
2023-01-28T04:29:30.131Z,19.75
2023-01-28T04:32:04.295Z,18.62
2023-01-28T04:34:41.298Z,20.72
2023-01-28T04:37:15.772Z,18.57
2023-01-28T04:39:49.851Z,17.82
2023-01-28T04:42:24.222Z,19.35
2023-01-28T04:44:58.341Z,19.00
2023-01-28T04:47:47.859Z,19.85
2023-01-28T04:50:34.768Z,18.40
2023-01-28T04:53:11.918Z,18.48
2023-01-28T04:55:54.803Z,18.67
2023-01-28T04:58:27.768Z,20.90
2023-01-28T05:01:02.385Z,19.10
2023-01-28T05:03:36.544Z,19.73
2023-01-28T05:06:11.007Z,19.27
2023-01-28T05:08:50.788Z,19.30
2023-01-28T05:11:24.672Z,19.00
2023-01-28T05:13:59.242Z,18.30
2023-01-28T05:19:07.765Z,19.20
2023-01-28T05:21:48.115Z,18.00
2023-01-28T05:26:54.276Z,18.77
2023-01-28T05:29:26.592Z,18.25
2023-01-28T05:31:59.047Z,18.40
2023-01-28T05:34:31.390Z,17.92
2023-01-28T05:37:05.908Z,18.52
2023-01-28T05:39:40.411Z,19.02
2023-01-28T05:42:15.451Z,16.73
2023-01-28T05:44:49.481Z,17.55
2023-01-28T05:47:23.676Z,16.75
2023-01-28T05:52:47.188Z,18.55
2023-01-28T05:55:24.965Z,17.70
2023-01-28T05:57:57.557Z,18.90
2023-01-28T06:00:31.873Z,18.45
2023-01-28T06:03:04.951Z,19.67
2023-01-28T06:08:11.937Z,16.73
2023-01-28T06:10:44.812Z,18.25
2023-01-28T06:13:17.282Z,18.90
2023-01-28T06:16:04.918Z,18.17
2023-01-28T06:18:54.520Z,17.70
2023-01-28T06:21:29.650Z,20.17
2023-01-28T06:24:02.531Z,20.37
2023-01-28T06:26:35.438Z,18.75
2023-01-28T06:29:09.372Z,19.82
2023-01-28T06:31:42.074Z,18.75
2023-01-28T06:34:15.565Z,19.15
2023-01-28T06:36:48.252Z,18.55
2023-01-28T06:39:22.533Z,20.27
2023-01-28T06:41:55.002Z,18.65
2023-01-28T06:44:27.835Z,19.45
2023-01-28T06:47:00.581Z,21.60
2023-01-28T06:49:33.195Z,18.70
2023-01-28T06:52:05.884Z,18.73
2023-01-28T06:54:38.367Z,18.87
2023-01-28T06:57:10.972Z,18.67
2023-01-28T06:59:43.606Z,19.57
2023-01-28T07:02:15.965Z,19.30
2023-01-28T07:04:48.255Z,18.92
2023-01-28T07:07:20.643Z,20.72
2023-01-28T07:09:53.159Z,18.07
2023-01-28T07:12:25.948Z,19.15
2023-01-28T07:14:58.404Z,19.70
2023-01-28T07:17:31.083Z,19.50
2023-01-28T07:20:05.404Z,20.60
2023-01-28T07:22:39.941Z,18.73
2023-01-28T07:25:13.197Z,20.70
2023-01-28T07:27:53.930Z,19.17
2023-01-28T07:30:26.938Z,20.08
2023-01-28T07:33:20.467Z,20.55
2023-01-28T07:35:53.041Z,20.32
2023-01-28T07:38:25.589Z,19.87
2023-01-28T07:40:57.929Z,19.00
2023-01-28T07:43:32.086Z,21.12
2023-01-28T07:46:04.708Z,20.02
2023-01-28T07:48:37.156Z,19.73
2023-01-28T07:51:09.682Z,21.12
2023-01-28T07:53:42.057Z,20.80
2023-01-28T07:56:14.389Z,20.12
2023-01-28T07:58:46.965Z,20.95
2023-01-28T08:01:19.956Z,19.60
2023-01-28T08:03:52.915Z,19.00
2023-01-28T08:06:25.588Z,18.90
2023-01-28T08:08:58.366Z,20.02
2023-01-28T08:11:30.952Z,17.87
2023-01-28T08:14:03.622Z,18.55
2023-01-28T08:16:36.199Z,18.60
2023-01-28T08:19:08.940Z,18.10
2023-01-28T08:21:41.339Z,17.92
2023-01-28T08:24:13.951Z,18.92
2023-01-28T08:26:46.390Z,18.42
2023-01-28T08:29:18.957Z,18.80
2023-01-28T08:31:51.356Z,17.32
2023-01-28T08:34:23.967Z,17.85
2023-01-28T08:36:56.494Z,18.02
2023-01-28T08:39:28.875Z,17.80
2023-01-28T08:42:01.229Z,16.93
2023-01-28T08:44:33.939Z,18.80
2023-01-28T08:47:06.965Z,17.92
2023-01-28T08:49:39.555Z,17.87
2023-01-28T08:52:12.187Z,19.07
2023-01-28T08:54:44.508Z,19.42
2023-01-28T08:57:17.365Z,17.70
2023-01-28T08:59:49.901Z,19.80
2023-01-28T09:02:31.567Z,19.40
2023-01-28T09:04:57.694Z,20.23
2023-01-28T09:07:30.174Z,19.97
2023-01-28T09:10:02.900Z,18.85
2023-01-28T09:12:35.542Z,20.85
2023-01-28T09:15:10.257Z,20.50
2023-01-28T09:17:42.890Z,19.95
2023-01-28T09:20:16.322Z,19.87
2023-01-28T09:22:49.203Z,21.13
2023-01-28T09:25:22.057Z,22.22
2023-01-28T09:27:54.513Z,20.05
2023-01-28T09:30:27.063Z,21.93
2023-01-28T09:32:59.606Z,21.55
2023-01-28T09:35:32.024Z,20.00
2023-01-28T09:38:05.025Z,21.65
2023-01-28T09:40:45.636Z,22.40
2023-01-28T09:43:27.709Z,22.13
2023-01-28T09:46:05.992Z,21.20
2023-01-28T09:48:52.846Z,20.37
2023-01-28T09:51:41.632Z,17.92
2023-01-28T09:57:49.905Z,18.27
2023-01-28T10:00:30.112Z,16.65
2023-01-28T10:03:41.280Z,17.20
2023-01-28T10:06:49.034Z,17.98
2023-01-28T10:09:45.675Z,17.35
2023-01-28T10:12:52.958Z,17.70
2023-01-28T10:15:33.092Z,18.05
2023-01-28T10:18:17.487Z,17.62
2023-01-28T10:20:56.855Z,17.40
2023-01-28T10:23:42.844Z,17.92
2023-01-28T10:26:25.613Z,17.32
2023-01-28T10:29:01.787Z,18.05
2023-01-28T10:31:38.936Z,17.48
2023-01-28T10:34:12.535Z,18.25
2023-01-28T10:36:45.298Z,19.62
2023-01-28T10:39:21.420Z,19.02
2023-01-28T10:41:58.710Z,17.77
2023-01-28T10:44:39.951Z,17.82
2023-01-28T10:47:20.257Z,17.98
2023-01-28T10:49:55.501Z,18.52
2023-01-28T10:52:28.181Z,18.30
2023-01-28T10:55:05.732Z,17.73
2023-01-28T10:57:38.392Z,17.00
2023-01-28T11:00:24.193Z,17.87
2023-01-28T11:02:56.738Z,16.87
2023-01-28T11:05:30.875Z,17.23
2023-01-28T11:08:18.207Z,17.30
2023-01-28T11:10:50.667Z,17.87
2023-01-28T11:13:28.962Z,16.60
2023-01-28T11:16:15.870Z,17.70
2023-01-28T11:19:05.502Z,17.77
2023-01-28T11:21:38.818Z,17.17
2023-01-28T11:24:22.150Z,17.87
2023-01-28T11:26:56.635Z,18.37
2023-01-28T11:32:04.923Z,16.97
2023-01-28T11:34:37.302Z,16.42
2023-01-28T11:37:16.818Z,16.35
2023-01-28T11:39:49.303Z,17.10
2023-01-28T11:42:23.154Z,17.77
2023-01-28T11:47:38.559Z,17.85
2023-01-28T11:50:19.183Z,18.00
2023-01-28T11:53:22.164Z,19.02
2023-01-28T11:56:11.133Z,17.75
2023-01-28T11:59:16.829Z,17.80
2023-01-28T12:01:53.425Z,17.27
2023-01-28T12:04:51.454Z,19.25
2023-01-28T12:07:40.840Z,18.27
2023-01-28T12:10:23.626Z,19.30
2023-01-28T12:13:39.418Z,19.62
2023-01-28T12:16:25.953Z,18.80
2023-01-28T12:19:24.211Z,17.55
2023-01-28T12:22:07.732Z,18.45
2023-01-28T12:25:19.414Z,18.00
2023-01-28T12:28:05.441Z,18.25
2023-01-28T12:31:24.304Z,17.45
2023-01-28T12:34:37.975Z,17.57
2023-01-28T12:37:30.583Z,17.52
2023-01-28T12:40:19.737Z,18.30
2023-01-28T12:42:59.383Z,18.23
2023-01-28T12:45:42.354Z,19.05
2023-01-28T12:48:25.296Z,18.35
2023-01-28T12:51:27.170Z,18.45
2023-01-28T12:54:25.000Z,18.67
2023-01-28T12:56:57.527Z,18.67
2023-01-28T12:59:49.810Z,19.15
2023-01-28T13:02:33.157Z,20.97
2023-01-28T13:05:22.212Z,18.67
2023-01-28T13:08:13.416Z,20.02
2023-01-28T13:10:47.646Z,19.20
2023-01-28T16:23:09.408Z,28.80
2023-01-28T16:25:42.294Z,27.32
2023-01-28T16:28:20.294Z,25.95
2023-01-28T16:30:52.785Z,24.60
2023-01-28T16:33:25.954Z,20.43
2023-01-28T16:36:08.240Z,19.40
2023-01-28T16:38:34.320Z,21.73
2023-01-28T16:41:13.866Z,19.87
2023-01-28T16:43:46.404Z,17.73
2023-01-28T16:46:19.210Z,19.30
2023-01-28T16:48:52.370Z,17.60
2023-01-28T16:51:24.806Z,16.40
2023-01-28T16:53:58.045Z,15.08
2023-01-28T16:56:47.141Z,14.18
2023-01-28T16:59:05.440Z,14.53
2023-01-28T17:01:37.881Z,13.15
2023-01-28T17:04:12.568Z,13.55
2023-01-28T17:06:45.365Z,11.38
2023-01-28T17:09:18.432Z,11.70
2023-01-28T17:11:50.990Z,11.75
2023-01-28T17:14:24.293Z,12.23
2023-01-28T17:16:57.837Z,11.25
2023-01-28T17:19:31.448Z,10.30
2023-01-28T17:22:03.970Z,10.80
2023-01-28T17:24:36.820Z,10.00
2023-01-28T17:27:09.893Z,9.75
2023-01-28T17:29:42.371Z,9.68
2023-01-28T17:32:15.018Z,11.05
2023-01-28T17:34:49.501Z,11.60
2023-01-28T17:37:22.445Z,11.10
2023-01-28T17:39:54.961Z,12.00
2023-01-28T17:42:28.381Z,11.88
2023-01-28T17:45:02.658Z,11.55
2023-01-28T17:47:35.642Z,11.93
2023-01-28T17:50:08.470Z,12.53
2023-01-28T17:52:42.159Z,11.90
2023-01-28T17:55:15.974Z,11.65
2023-01-28T17:57:48.912Z,12.05
2023-01-28T18:00:23.287Z,11.43
2023-01-28T18:02:56.731Z,11.83
2023-01-28T18:05:29.143Z,11.33
2023-01-28T18:08:01.611Z,11.97
2023-01-28T18:10:34.212Z,11.18
2023-01-28T18:13:06.734Z,12.63
2023-01-28T18:15:40.423Z,12.37
2023-01-28T18:18:13.052Z,13.43
2023-01-28T18:20:45.654Z,12.88
2023-01-28T18:23:18.187Z,12.70
2023-01-28T18:25:51.327Z,13.20
2023-01-28T18:28:23.814Z,12.10
2023-01-28T18:30:56.787Z,12.78
2023-01-28T18:33:31.238Z,12.07
2023-01-28T18:36:06.549Z,12.17
2023-01-28T18:38:39.186Z,10.72
2023-01-28T18:41:11.618Z,12.28
2023-01-28T18:43:44.634Z,11.03
2023-01-28T18:46:19.110Z,11.30
2023-01-28T18:48:51.768Z,11.28
2023-01-28T18:51:31.201Z,10.53
2023-01-28T18:54:04.097Z,10.60
2023-01-28T18:56:36.728Z,10.55
2023-01-28T18:59:11.152Z,12.07
2023-01-28T19:01:44.049Z,11.95
2023-01-28T19:04:16.771Z,10.63
2023-01-28T19:06:49.451Z,10.38
2023-01-28T19:09:22.207Z,10.08
2023-01-28T19:11:54.710Z,10.35
2023-01-28T19:14:27.982Z,10.03
2023-01-28T19:17:00.548Z,10.55
2023-01-28T19:19:33.299Z,9.78
2023-01-28T19:22:05.833Z,9.60
2023-01-28T19:24:38.477Z,10.13
2023-01-28T19:27:10.963Z,9.40
2023-01-28T19:29:44.248Z,10.28
2023-01-28T19:32:16.859Z,10.25
2023-01-28T19:34:49.948Z,11.25
2023-01-28T19:37:23.651Z,10.03
2023-01-28T19:39:56.398Z,10.60
2023-01-28T19:42:28.675Z,10.63
2023-01-28T19:45:03.988Z,11.03
2023-01-28T19:47:35.918Z,10.58
2023-01-28T19:50:10.098Z,11.55
2023-01-28T19:52:43.479Z,11.10
2023-01-28T19:55:16.170Z,10.90
2023-01-28T19:57:51.008Z,11.03
2023-01-28T20:00:23.601Z,10.15
2023-01-28T20:02:55.949Z,11.60
2023-01-28T20:05:28.314Z,11.57
2023-01-28T20:08:00.936Z,9.88
2023-01-28T20:10:34.209Z,10.75
2023-01-28T20:13:08.126Z,11.28
2023-01-28T20:18:13.596Z,9.83
2023-01-28T20:20:55.671Z,9.05
2023-01-28T20:23:28.555Z,10.05
2023-01-28T20:26:04.027Z,9.35
2023-01-28T20:28:36.784Z,10.35
2023-01-28T20:31:10.665Z,10.05
2023-01-28T20:33:43.017Z,9.83
2023-01-28T20:36:16.318Z,9.93
2023-01-28T20:38:50.358Z,9.38
2023-01-28T20:41:24.994Z,9.88
2023-01-28T20:43:57.301Z,9.13
2023-01-28T20:46:33.372Z,9.50
2023-01-28T20:49:10.259Z,10.28
2023-01-28T20:51:44.397Z,9.18
2023-01-28T20:56:51.634Z,10.35
2023-01-28T20:59:24.307Z,10.53
2023-01-28T21:01:56.762Z,9.83
2023-01-28T21:04:29.827Z,10.20
2023-01-28T21:07:02.936Z,10.63
2023-01-28T21:09:36.399Z,9.95
2023-01-28T21:12:09.617Z,10.95
2023-01-28T21:14:42.643Z,10.53
2023-01-28T21:17:15.659Z,10.18
2023-01-28T21:19:48.626Z,9.90
2023-01-28T21:22:21.249Z,10.13
2023-01-28T21:24:54.216Z,8.50
2023-01-28T21:27:26.659Z,10.32
2023-01-28T21:29:59.106Z,9.60
2023-01-28T21:32:31.969Z,9.28
2023-01-28T21:35:04.668Z,8.73
2023-01-28T21:37:39.142Z,9.05
2023-01-28T21:40:14.343Z,10.43
2023-01-28T21:42:47.875Z,9.35
2023-01-28T21:45:20.597Z,10.87
2023-01-28T21:47:54.419Z,9.80
2023-01-28T21:50:27.430Z,9.93
2023-01-28T21:52:59.821Z,9.93
2023-01-28T21:55:32.244Z,10.40
2023-01-28T21:58:06.620Z,11.57
